Time;durP1;ratioP1;P1;durP2;ratioP2;P2;SDS_P1;SDS_P2;PMS_P1;PMS_P2;Temp;Humidity;BMP_temperature;BMP_pressure;BME280_temperature;BME280_humidity;BME280_pressure;Samples;Min_cycle;Max_cycle;Signal;HPM_P1;HPM_P2
2022/03/19 00:02:01;;;;;;;;;;;;;;;-3.96;72.34;99923.34;10336695;28;20125;-61
2022/03/19 00:07:00;;;;;;;74.72;42.25;;;;;;;-4.19;72.07;99875.63;10352788;28;19909;-60
2022/03/19 00:11:59;;;;;;;68.53;36.33;;;;;;;-4.10;72.06;99916.13;10336399;28;20510;-61
2022/03/19 00:16:59;;;;;;;67.70;40.30;;;;;;;-5.68;73.06;99632.50;10335717;28;20033;-60
2022/03/19 00:21:58;;;;;;;74.35;39.90;;;;;;;-4.42;72.95;99854.16;10335295;28;20503;-60
2022/03/19 00:26:56;;;;;;;59.15;32.95;;;;;;;-4.06;73.25;99898.81;10336555;28;20025;-60
2022/03/19 00:31:55;;;;;;;50.40;27.83;;;;;;;-4.13;73.05;99904.06;10336240;28;20044;-60
2022/03/19 00:36:56;;;;;;;53.00;29.67;;;;;;;-4.31;73.06;99900.72;10335939;28;20031;-60
2022/03/19 00:41:55;;;;;;;53.58;29.58;;;;;;;-4.59;74.84;99893.88;10335951;28;20072;-60
2022/03/19 00:46:53;;;;;;;48.33;27.10;;;;;;;-5.14;73.73;99818.75;10333023;28;20088;-60
2022/03/19 00:51:52;;;;;;;48.00;27.80;;;;;;;-4.70;74.40;99898.84;10335559;28;20036;-60
2022/03/19 00:56:51;;;;;;;51.72;29.00;;;;;;;-4.97;73.97;99886.16;10336511;28;20112;-60
2022/03/19 01:01:50;;;;;;;57.60;33.30;;;;;;;-4.97;74.35;99891.22;10335074;28;20507;-60
2022/03/19 01:06:49;;;;;;;59.03;33.88;;;;;;;-4.96;74.29;99898.03;10335410;28;20591;-60
2022/03/19 01:11:48;;;;;;;57.33;33.08;;;;;;;-5.01;74.15;99886.59;10336006;28;20439;-60
2022/03/19 01:16:47;;;;;;;47.67;27.75;;;;;;;-5.65;74.10;99773.50;10331550;28;20068;-61
2022/03/19 01:21:46;;;;;;;54.50;29.05;;;;;;;-4.91;73.57;99896.81;10334675;28;20029;-60
2022/03/19 01:26:45;;;;;;;65.10;31.35;;;;;;;-5.40;73.75;99796.03;10333908;28;20065;-61
2022/03/19 01:31:44;;;;;;;67.03;33.00;;;;;;;-4.97;74.20;99879.44;10333527;28;20112;-61
2022/03/19 01:36:43;;;;;;;75.13;33.78;;;;;;;-4.91;73.32;99880.03;10334249;28;20100;-61
2022/03/19 01:41:42;;;;;;;60.63;31.45;;;;;;;-4.97;73.97;99876.91;10334645;28;20570;-60
2022/03/19 01:46:53;;;;;;;80.82;39.63;;;;;;;-4.93;74.56;99883.16;10330348;28;20550;-60
2022/03/19 01:51:52;;;;;;;64.90;33.03;;;;;;;-5.27;74.68;99824.28;10334481;28;20057;-60
2022/03/19 01:56:52;;;;;;;67.00;35.13;;;;;;;-5.32;74.68;99830.56;10333550;28;20530;-60
2022/03/19 02:01:52;;;;;;;79.43;41.92;;;;;;;-5.49;74.88;99796.97;10332611;28;20065;-60
2022/03/19 02:06:51;;;;;;;67.75;37.95;;;;;;;-5.08;74.28;99863.22;10332713;28;20061;-60
2022/03/19 02:11:51;;;;;;;;;;;;;;;-5.06;74.38;99870.97;10332728;28;20064;-60
2022/03/19 02:16:50;;;;;;;74.63;37.63;;;;;;;-5.31;74.11;99833.25;10329041;28;20381;-61
2022/03/19 02:21:51;;;;;;;68.68;36.72;;;;;;;-5.16;75.11;99881.88;10333170;28;20534;-60
2022/03/19 02:26:50;;;;;;;404.48;162.90;;;;;;;-5.15;75.18;99870.09;10332629;28;20492;-60
2022/03/19 02:32:00;;;;;;;226.43;94.78;;;;;;;-5.17;74.77;99875.00;10331768;28;20064;-61
2022/03/19 02:37:01;;;;;;;82.10;40.38;;;;;;;-5.53;75.83;99819.28;10332438;28;20060;-60
2022/03/19 02:42:05;;;;;;;66.63;34.25;;;;;;;-5.22;76.33;99883.81;10331307;28;20495;-60
2022/03/19 02:47:06;;;;;;;106.68;47.47;;;;;;;-5.66;76.11;99812.16;10327153;28;20111;-61
2022/03/19 02:52:05;;;;;;;60.35;32.97;;;;;;;-5.53;75.67;99855.59;10331293;28;20060;-60
2022/03/19 02:57:04;;;;;;;62.38;31.02;;;;;;;-5.42;76.84;99888.63;10331204;28;20443;-60
2022/03/19 03:02:07;;;;;;;57.38;32.88;;;;;;;-5.65;76.89;99888.94;10330982;28;20399;-60
2022/03/19 03:07:06;;;;;;;329.80;130.77;;;;;;;-5.97;77.67;99866.47;10331212;28;20085;-60
2022/03/19 03:12:05;;;;;;;56.55;30.33;;;;;;;-5.86;77.65;99893.69;10330910;28;20055;-60
2022/03/19 03:17:05;;;;;;;109.90;64.57;;;;;;;-5.95;77.08;99863.34;10330401;28;20480;-60
2022/03/19 03:22:03;;;;;;;;;;;;;;;-5.93;76.99;99866.94;10327653;28;20068;-60
2022/03/19 03:27:03;;;;;;;57.53;30.70;;;;;;;-5.96;77.30;99875.88;10330593;28;19916;-61
2022/03/19 03:32:02;;;;;;;76.97;35.85;;;;;;;-6.39;77.65;99816.06;10330224;28;20056;-60
2022/03/19 03:37:00;;;;;;;;;;;;;;;-6.11;78.54;99875.25;10331341;28;20059;-61
2022/03/19 03:41:59;;;;;;;65.30;34.70;;;;;;;-6.30;78.09;99837.16;10329965;28;19967;-61
2022/03/19 03:46:58;;;;;;;;;;;;;;;-6.01;78.30;99883.00;10330485;28;20046;-60
2022/03/19 03:51:57;;;;;;;57.40;29.38;;;;;;;-6.07;78.07;99867.22;10358394;28;20039;-61
2022/03/19 03:56:56;;;;;;;54.70;27.95;;;;;;;-6.53;77.30;99784.38;10370565;28;20078;-60
2022/03/19 04:01:55;;;;;;;;;;;;;;;-5.95;77.60;99888.63;10370674;28;20029;-61
2022/03/19 04:06:54;;;;;;;51.83;29.50;;;;;;;-5.93;77.29;99878.69;10370404;28;19958;-60
2022/03/19 04:11:53;;;;;;;;;;;;;;;-5.95;77.38;99883.59;10371194;28;20499;-60
2022/03/19 04:16:51;;;;;;;52.67;30.88;;;;;;;-6.23;77.58;99831.97;10370811;28;20382;-61
2022/03/19 04:21:50;;;;;;;60.47;30.02;;;;;;;-5.94;77.47;99892.97;10345167;28;20039;-61
2022/03/19 04:26:49;;;;;;;56.28;30.50;;;;;;;-5.92;77.29;99883.91;10336986;28;20475;-60
2022/03/19 04:31:48;;;;;;;;;;;;;;;-5.93;77.27;99884.63;10336680;28;20566;-60
2022/03/19 04:36:47;;;;;;;82.57;42.28;;;;;;;-6.25;77.34;99837.63;10336767;28;19959;-61
2022/03/19 04:41:46;;;;;;;;;;;;;;;-6.03;78.40;99876.91;10335717;28;20057;-61
2022/03/19 04:46:45;;;;;;;84.18;43.92;;;;;;;-6.41;77.96;99833.59;10336229;28;19933;-60
2022/03/19 04:51:44;;;;;;;;;;;;;;;-6.10;78.11;99894.72;10333303;28;20163;-61
2022/03/19 04:56:43;;;;;;;117.47;54.37;;;;;;;-6.09;78.39;99906.63;10336058;28;19913;-60
2022/03/19 05:01:43;;;;;;;106.05;53.42;;;;;;;-6.07;78.47;99910.19;10334412;28;20154;-60
2022/03/19 05:06:42;;;;;;;91.68;46.15;;;;;;;-6.91;78.38;99773.94;10333862;28;20138;-61
2022/03/19 05:11:41;;;;;;;86.68;41.70;;;;;;;-6.15;78.82;99914.50;10335762;28;20121;-61
2022/03/19 05:16:40;;;;;;;66.97;37.55;;;;;;;-6.31;79.04;99886.81;10334641;28;20061;-60
2022/03/19 05:21:39;;;;;;;75.63;40.80;;;;;;;-6.24;79.20;99900.06;10334769;28;20033;-60
2022/03/19 05:26:38;;;;;;;78.97;40.88;;;;;;;-6.12;78.78;99896.22;10335028;28;20137;-60
2022/03/19 05:31:37;;;;;;;;;;;;;;;-6.02;78.72;99913.16;10334989;28;20047;-60
2022/03/19 05:36:36;;;;;;;56.58;33.08;;;;;;;-6.06;79.01;99894.28;10332792;28;20378;-61
2022/03/19 05:41:35;;;;;;;59.38;34.92;;;;;;;-5.96;79.08;99907.09;10334683;28;20412;-61
2022/03/19 05:46:34;;;;;;;53.95;31.80;;;;;;;-6.05;78.63;99891.03;10333938;28;20073;-60
2022/03/19 05:51:34;;;;;;;;;;;;;;;-5.75;77.94;99920.06;10334529;28;20060;-61
2022/03/19 05:56:33;;;;;;;74.10;36.67;;;;;;;-6.51;78.21;99766.13;10333964;28;19951;-61
2022/03/19 06:01:32;;;;;;;61.90;36.13;;;;;;;-5.38;78.16;99905.88;10333151;28;20499;-60
2022/03/19 06:06:31;;;;;;;67.10;40.90;;;;;;;-5.01;77.71;99914.44;10333393;28;20499;-61
2022/03/19 06:11:31;;;;;;;97.57;53.78;;;;;;;-4.79;77.16;99908.13;10333132;28;20053;-61
2022/03/19 06:16:30;;;;;;;82.22;46.20;;;;;;;-4.68;77.20;99874.53;10332453;28;20517;-61
2022/03/19 06:21:30;;;;;;;97.50;53.92;;;;;;;-4.27;76.42;99889.25;10333405;28;20593;-61
2022/03/19 06:26:29;;;;;;;101.82;58.75;;;;;;;-3.99;75.39;99900.25;10332456;28;20037;-61
2022/03/19 06:31:28;;;;;;;108.05;59.92;;;;;;;-3.96;75.38;99844.72;10332452;28;20026;-61
2022/03/19 06:41:45;;;;;;;81.18;51.15;;;;;;;-3.24;72.89;99914.56;10331460;28;20064;-61
2022/03/19 06:46:44;;;;;;;194.95;93.88;;;;;;;-3.25;72.10;99901.72;10331397;28;20050;-61
2022/03/19 06:51:43;;;;;;;134.90;71.20;;;;;;;-3.04;72.21;99902.69;10331061;28;20043;-61
2022/03/19 06:56:42;;;;;;;;;;;;;;;-2.81;71.48;99899.59;10330252;28;20092;-61
2022/03/19 07:01:41;;;;;;;95.47;55.47;;;;;;;-2.63;70.22;99905.38;10312972;28;19924;-61
2022/03/19 07:06:40;;;;;;;97.18;55.08;;;;;;;-2.55;70.49;99902.72;10311404;28;20507;-61
2022/03/19 07:11:39;;;;;;;105.30;62.78;;;;;;;-2.41;69.94;99906.41;10309964;28;20029;-61
2022/03/19 07:16:38;;;;;;;99.45;59.65;;;;;;;-2.31;67.56;99905.56;10329276;28;20022;-61
2022/03/19 07:21:37;;;;;;;;;;;;;;;-2.23;67.60;99916.38;10328300;28;20463;-61
2022/03/19 07:26:36;;;;;;;97.68;54.90;;;;;;;-2.19;67.45;99918.44;10329871;28;20360;-61
2022/03/19 07:31:35;;;;;;;75.22;43.05;;;;;;;-2.13;67.51;99883.31;10330476;28;20492;-61
2022/03/19 07:36:34;;;;;;;660.67;308.92;;;;;;;-1.84;67.34;99908.63;10329951;28;20033;-61
2022/03/19 07:41:46;;;;;;;238.05;102.18;;;;;;;-2.19;66.19;99835.38;10329548;28;20030;-61
2022/03/19 07:46:45;;;;;;;44.88;26.83;;;;;;;-1.79;61.78;99889.53;10328554;28;20514;-61
2022/03/19 07:51:44;;;;;;;63.33;36.42;;;;;;;-1.51;58.94;99897.75;10327232;28;20517;-61
2022/03/19 07:56:43;;;;;;;35.20;19.00;;;;;;;-1.79;57.82;99831.00;10327786;28;20529;-61
2022/03/19 08:01:42;;;;;;;27.33;14.35;;;;;;;-1.54;57.54;99894.06;10335853;28;20484;-61
2022/03/19 08:06:41;;;;;;;39.90;18.27;;;;;;;-1.54;57.36;99822.78;10338419;28;20069;-61
2022/03/19 08:11:40;;;;;;;43.33;24.70;;;;;;;-1.18;56.51;99840.09;10334021;28;20487;-61
2022/03/19 08:16:40;;;;;;;56.25;29.23;;;;;;;-0.68;55.43;99881.34;10337597;28;20072;-61
2022/03/19 08:21:40;;;;;;;25.30;14.60;;;;;;;-0.46;53.07;99893.19;10337262;28;20069;-61
2022/03/19 08:26:39;;;;;;;75.47;40.10;;;;;;;-0.20;53.88;99892.66;10337540;28;20514;-61
2022/03/19 08:31:39;;;;;;;;;;;;;;;0.20;54.20;99883.78;10337259;28;20064;-61
2022/03/19 08:36:38;;;;;;;21.45;13.23;;;;;;;0.47;51.04;99869.59;10336917;28;19963;-61
2022/03/19 08:41:37;;;;;;;26.08;17.52;;;;;;;0.29;49.53;99804.41;10336978;28;20068;-61
2022/03/19 08:46:36;;;;;;;21.20;13.82;;;;;;;0.95;49.18;99847.44;10335379;28;20056;-61
2022/03/19 08:51:41;;;;;;;24.05;14.10;;;;;;;1.52;49.61;99836.00;10336296;28;20414;-61
2022/03/19 08:56:42;;;;;;;24.58;13.57;;;;;;;2.37;49.73;99860.44;10336276;28;20072;-62
2022/03/19 09:01:41;;;;;;;23.67;15.30;;;;;;;2.93;46.75;99858.09;10335876;28;20061;-62
2022/03/19 09:06:41;;;;;;;30.70;17.52;;;;;;;3.34;45.61;99852.06;10336107;28;20025;-62
2022/03/19 09:11:40;;;;;;;19.13;11.68;;;;;;;3.22;42.78;99867.59;10335704;28;20064;-62
2022/03/19 09:16:40;;;;;;;135.38;52.03;;;;;;;2.95;42.59;99820.56;10335434;28;20065;-62
2022/03/19 09:21:40;;;;;;;20.85;13.55;;;;;;;3.12;41.97;99848.94;10335520;28;20172;-62
2022/03/19 09:26:39;;;;;;;290.25;116.75;;;;;;;3.13;41.36;99854.19;10335411;28;20498;-62
2022/03/19 09:31:38;;;;;;;43.53;22.90;;;;;;;2.98;42.18;99851.56;10334976;28;20048;-62
2022/03/19 09:36:37;;;;;;;21.13;11.38;;;;;;;3.25;42.23;99843.78;10334782;28;20426;-62
2022/03/19 09:41:36;;;;;;;31.45;17.95;;;;;;;2.94;42.34;99813.69;10334705;28;20057;-61
2022/03/19 09:46:37;;;;;;;272.60;107.75;;;;;;;2.92;41.58;99799.88;10333016;28;20047;-61
2022/03/19 09:51:40;;;;;;;310.13;135.52;;;;;;;2.82;40.34;99838.56;10334358;28;20064;-61
2022/03/19 09:56:39;;;;;;;21.25;12.93;;;;;;;2.81;39.62;99840.22;10334393;28;20463;-61
2022/03/19 10:01:39;;;;;;;21.95;15.15;;;;;;;2.89;38.79;99848.41;10334569;28;20456;-61
2022/03/19 10:12:11;;;;;;;19.23;12.18;;;;;;;2.79;38.94;99843.47;10333732;28;19967;-61
2022/03/19 10:17:10;;;;;;;20.17;13.10;;;;;;;2.66;39.13;99839.25;10333752;28;20506;-61
2022/03/19 10:22:09;;;;;;;21.63;14.13;;;;;;;2.81;38.96;99826.53;10332466;28;20442;-61
2022/03/19 10:27:18;;;;;;;19.50;13.02;;;;;;;2.62;38.77;99823.59;10332895;28;20065;-61
2022/03/19 10:32:19;;;;;;;25.75;17.27;;;;;;;2.67;38.29;99832.44;10331713;28;20126;-61
2022/03/19 10:37:39;;;;;;;22.98;13.90;;;;;;;2.54;38.16;99818.88;10332328;28;20065;-61
2022/03/19 10:42:40;;;;;;;25.42;15.43;;;;;;;2.32;38.76;99803.75;10332264;28;20534;-62
2022/03/19 10:47:44;;;;;;;15.25;10.90;;;;;;;2.46;38.30;99826.84;10331809;28;20085;-62
2022/03/19 10:52:45;;;;;;;19.10;12.45;;;;;;;2.58;37.95;99832.75;10331935;28;20065;-62
2022/03/19 10:57:45;;;;;;;21.50;14.15;;;;;;;2.50;37.95;99806.63;10331715;28;20079;-61
2022/03/19 11:02:45;;;;;;;20.42;13.48;;;;;;;2.69;38.01;99818.06;10331939;28;20083;-62
2022/03/19 11:07:46;;;;;;;20.98;11.68;;;;;;;2.81;37.27;99816.25;10332168;28;20075;-62
2022/03/19 11:12:52;;;;;;;19.42;13.82;;;;;;;2.97;36.30;99793.34;10331485;28;20048;-62
2022/03/19 11:17:56;;;;;;;21.58;14.70;;;;;;;3.18;36.55;99798.03;10331154;28;20065;-62
2022/03/19 11:22:58;;;;;;;27.27;15.00;;;;;;;2.84;36.04;99788.28;10331502;28;20075;-62
2022/03/19 11:28:00;;;;;;;23.63;15.88;;;;;;;2.82;36.46;99802.66;10331320;28;20069;-62
2022/03/19 11:33:05;;;;;;;21.27;14.07;;;;;;;2.51;35.92;99800.75;10330342;28;20060;-62
2022/03/19 11:38:13;;;;;;;20.98;13.63;;;;;;;2.11;36.48;99726.47;10330864;28;20518;-62
2022/03/19 11:43:17;;;;;;;16.20;11.63;;;;;;;2.45;36.15;99787.53;10330892;28;20061;-62
2022/03/19 11:48:35;;;;;;;19.42;12.70;;;;;;;2.56;36.96;99783.97;10330765;28;20104;-62
2022/03/19 11:53:52;;;;;;;20.63;15.02;;;;;;;2.48;36.83;99784.25;10330123;28;20064;-62
2022/03/19 11:58:52;;;;;;;18.45;10.95;;;;;;;2.77;36.08;99781.00;10330705;28;20065;-62
2022/03/19 12:04:06;;;;;;;23.48;14.82;;;;;;;2.97;35.53;99771.94;10330366;28;20338;-62
2022/03/19 12:09:05;;;;;;;21.52;15.68;;;;;;;3.09;36.76;99764.13;10330255;28;20067;-62
2022/03/19 12:14:10;;;;;;;22.58;13.35;;;;;;;2.85;36.46;99753.25;10329305;28;20123;-62
2022/03/19 12:19:09;;;;;;;16.98;11.18;;;;;;;2.70;37.84;99745.47;10329756;28;20072;-62
2022/03/19 12:24:26;;;;;;;18.05;12.05;;;;;;;2.38;38.02;99713.63;10326923;28;20436;-62
2022/03/19 12:29:30;;;;;;;21.77;12.57;;;;;;;2.76;37.34;99751.88;10326815;28;20064;-62
2022/03/19 12:34:30;;;;;;;18.48;10.88;;;;;;;2.79;37.17;99766.56;10326841;28;20068;-62
2022/03/19 12:39:30;;;;;;;19.63;10.52;;;;;;;3.07;37.26;99740.94;10329775;28;20057;-62
2022/03/19 12:44:29;;;;;;;13.77;9.82;;;;;;;3.17;35.85;99724.44;10333796;28;20081;-62
2022/03/19 12:49:29;;;;;;;17.05;11.10;;;;;;;2.73;35.74;99733.75;10336878;28;20783;-62
2022/03/19 12:54:31;;;;;;;16.60;11.35;;;;;;;2.80;36.63;99750.41;10336576;28;20491;-62
2022/03/19 12:59:31;;;;;;;14.60;9.57;;;;;;;2.71;36.10;99750.72;10336435;28;20516;-62
2022/03/19 13:04:31;;;;;;;20.20;13.05;;;;;;;2.82;36.40;99751.38;10336830;28;20079;-61
2022/03/19 13:09:39;;;;;;;26.58;16.15;;;;;;;2.68;37.07;99763.34;10336001;28;20057;-60
2022/03/19 13:14:38;;;;;;;19.25;12.98;;;;;;;2.51;36.48;99759.72;10335965;28;20068;-60
2022/03/19 13:19:38;;;;;;;16.23;10.63;;;;;;;2.44;36.60;99757.56;10335546;28;20430;-60
2022/03/19 13:24:38;;;;;;;13.57;9.23;;;;;;;2.50;36.88;99757.94;10335595;28;20065;-60
2022/03/19 13:29:37;;;;;;;19.48;12.85;;;;;;;2.71;37.73;99766.09;10335960;28;20064;-60
2022/03/19 13:34:38;;;;;;;18.13;11.75;;;;;;;2.28;38.15;99757.38;10335779;28;20068;-59
2022/03/19 13:39:49;;;;;;;15.10;10.48;;;;;;;2.08;37.95;99756.97;10334868;28;20065;-60
2022/03/19 13:44:59;;;;;;;17.80;11.60;;;;;;;1.97;38.12;99755.38;10334770;28;20088;-60
2022/03/19 13:50:00;;;;;;;22.08;14.63;;;;;;;1.86;37.87;99677.91;10334798;28;20061;-60
2022/03/19 13:55:05;;;;;;;21.17;14.90;;;;;;;2.61;38.47;99758.63;10333444;28;20071;-60
2022/03/19 14:00:13;;;;;;;23.27;14.63;;;;;;;2.80;37.72;99752.97;10334243;28;20065;-59
2022/03/19 14:05:12;;;;;;;15.00;8.57;;;;;;;2.90;37.08;99745.03;10334312;28;20460;-60
2022/03/19 14:10:11;;;;;;;18.17;10.90;;;;;;;2.86;36.65;99706.28;10331904;28;20561;-60
2022/03/19 14:15:17;;;;;;;;;;;;;;;2.79;37.94;99739.28;10333478;28;20088;-59
2022/03/19 14:20:18;;;;;;;18.20;11.32;;;;;;;1.84;38.19;99678.59;10332971;28;20395;-60
2022/03/19 14:25:18;;;;;;;15.55;10.43;;;;;;;1.86;37.37;99739.34;10333317;28;20061;-59
2022/03/19 14:30:17;;;;;;;12.52;8.40;;;;;;;1.89;36.71;99736.97;10332266;28;20420;-60
2022/03/19 14:35:47;;;;;;;15.52;9.30;;;;;;;2.03;37.09;99709.72;10332328;28;20484;-59
2022/03/19 14:40:47;;;;;;;14.38;8.52;;;;;;;2.47;37.04;99738.94;10332565;28;20064;-60
2022/03/19 14:45:50;;;;;;;14.73;8.82;;;;;;;2.61;37.94;99740.69;10347084;28;20123;-60
2022/03/19 14:50:51;;;;;;;15.05;9.60;;;;;;;2.09;36.47;99740.84;10328749;28;20060;-60
2022/03/19 14:55:52;;;;;;;17.13;12.02;;;;;;;1.85;37.75;99749.47;10331796;28;20056;-60
2022/03/19 15:00:51;;;;;;;15.82;9.35;;;;;;;1.13;39.02;99696.06;10331909;28;20061;-60
2022/03/19 15:05:50;;;;;;;18.33;11.73;;;;;;;1.43;39.69;99746.72;10329794;28;20123;-60
2022/03/19 15:10:51;;;;;;;26.35;13.75;;;;;;;1.37;40.13;99745.44;10330842;28;20033;-60
2022/03/19 15:15:55;;;;;;;17.77;11.93;;;;;;;1.44;40.61;99745.97;10330900;28;20065;-60
2022/03/19 15:20:54;;;;;;;14.57;9.30;;;;;;;1.49;39.72;99744.59;10330652;28;20117;-60
2022/03/19 15:25:55;;;;;;;20.45;11.88;;;;;;;1.13;39.42;99735.34;10329403;28;20130;-60
2022/03/19 15:30:55;;;;;;;18.25;10.27;;;;;;;1.17;39.57;99755.19;10329854;28;20561;-60
2022/03/19 15:35:54;;;;;;;23.45;14.32;;;;;;;1.11;40.45;99763.34;10331119;28;20486;-60
2022/03/19 15:40:53;;;;;;;19.52;11.20;;;;;;;0.96;40.99;99764.84;10330161;28;20439;-60
2022/03/19 15:45:52;;;;;;;21.10;13.10;;;;;;;0.76;40.88;99752.38;10329225;28;20144;-60
2022/03/19 15:50:51;;;;;;;23.20;14.50;;;;;;;0.78;41.16;99773.78;10329640;28;20515;-60
2022/03/19 15:55:50;;;;;;;23.40;14.15;;;;;;;0.43;40.86;99745.00;10329807;28;20034;-60
2022/03/19 16:00:50;;;;;;;22.88;13.55;;;;;;;0.45;40.70;99780.84;10329736;28;20065;-60
2022/03/19 16:05:49;;;;;;;32.35;18.20;;;;;;;0.33;40.97;99773.19;10330056;28;20069;-60
2022/03/19 16:10:48;;;;;;;28.17;18.88;;;;;;;0.01;40.87;99751.34;10328032;28;20057;-60
2022/03/19 16:15:47;;;;;;;28.05;19.98;;;;;;;0.24;41.25;99800.59;10289085;28;20068;-60
2022/03/19 16:20:46;;;;;;;33.22;18.08;;;;;;;0.18;41.43;99805.28;10295717;28;20042;-60
2022/03/19 16:25:45;;;;;;;24.73;16.27;;;;;;;0.13;41.94;99804.06;10296579;28;20087;-60
2022/03/19 16:30:44;;;;;;;21.13;13.95;;;;;;;-0.09;40.87;99802.47;10296197;28;20040;-60
2022/03/19 16:35:43;;;;;;;20.98;12.98;;;;;;;-0.60;40.47;99744.28;10296646;28;20034;-60
2022/03/19 16:40:43;;;;;;;25.27;15.77;;;;;;;-0.46;41.75;99801.38;10327151;28;20072;-60
2022/03/19 16:45:42;;;;;;;39.17;20.88;;;;;;;-0.46;43.32;99821.78;10333865;28;20131;-60
2022/03/19 16:50:41;;;;;;;28.98;16.08;;;;;;;-0.57;43.70;99843.06;10335600;28;20034;-60
2022/03/19 16:55:40;;;;;;;40.28;23.25;;;;;;;-0.71;45.42;99842.00;10335811;28;20033;-61
2022/03/19 17:00:39;;;;;;;28.50;18.38;;;;;;;-0.69;46.30;99858.31;10335743;28;20505;-60
2022/03/19 17:05:38;;;;;;;44.80;26.38;;;;;;;-1.07;45.95;99803.59;10336260;28;20034;-62
2022/03/19 17:10:38;;;;;;;38.83;24.13;;;;;;;-1.12;46.12;99809.09;10335204;28;20498;-62
2022/03/19 17:15:37;;;;;;;36.28;21.95;;;;;;;-0.78;46.77;99871.22;10335142;28;20069;-62
2022/03/19 17:20:36;;;;;;;39.85;25.13;;;;;;;-1.19;47.40;99828.09;10334390;28;20034;-61
2022/03/19 17:25:36;;;;;;;47.13;27.80;;;;;;;-1.03;47.48;99866.75;10335062;28;20484;-62
2022/03/19 17:30:36;;;;;;;40.78;26.92;;;;;;;-0.97;48.50;99902.03;10333751;28;20072;-59
2022/03/19 17:35:35;;;;;;;27.23;17.08;;;;;;;-1.07;48.32;99902.06;10334500;28;20734;-60
2022/03/19 17:40:34;;;;;;;20.35;12.73;;;;;;;-1.14;48.76;99900.72;10334261;28;20603;-60
2022/03/19 17:45:33;;;;;;;23.77;13.95;;;;;;;-1.19;48.38;99914.72;10331124;28;20058;-60
2022/03/19 17:50:32;;;;;;;30.10;17.77;;;;;;;-1.24;48.42;99910.91;10332085;28;20060;-60
2022/03/19 17:55:31;;;;;;;35.45;19.65;;;;;;;-1.23;48.62;99928.00;10334954;28;20039;-60
2022/03/19 18:00:31;;;;;;;32.05;17.95;;;;;;;-1.46;48.84;99893.03;10333038;28;20072;-62
2022/03/19 18:05:30;;;;;;;21.83;13.48;;;;;;;-1.29;48.54;99935.13;10332098;28;20069;-61
2022/03/19 18:10:29;;;;;;;28.83;18.48;;;;;;;-1.23;48.18;99939.06;10334038;28;20033;-62
2022/03/19 18:15:28;;;;;;;52.50;27.48;;;;;;;-1.18;48.82;99948.75;10329315;28;20499;-62
2022/03/19 18:20:27;;;;;;;45.30;26.63;;;;;;;-1.39;48.96;99943.69;10332940;28;20028;-60
2022/03/19 18:25:27;;;;;;;34.42;21.45;;;;;;;-1.64;49.31;99908.56;10332453;28;20072;-61
2022/03/19 18:30:26;;;;;;;34.47;18.75;;;;;;;-1.56;49.43;99927.06;10332563;28;20061;-62
2022/03/19 18:35:25;;;;;;;47.17;26.42;;;;;;;-1.37;48.73;99965.09;10332244;28;20438;-62
2022/03/19 18:40:24;;;;;;;41.28;26.02;;;;;;;-1.38;49.38;99963.28;10331777;28;20068;-62
2022/03/19 18:45:23;;;;;;;50.65;26.05;;;;;;;-1.38;49.09;99975.13;10327581;28;20104;-59
2022/03/19 18:50:22;;;;;;;54.75;31.52;;;;;;;-1.41;49.63;99973.22;10331350;28;20498;-62
2022/03/19 18:55:21;;;;;;;90.60;45.17;;;;;;;-1.49;50.63;99971.72;10331973;28;20052;-60
2022/03/19 19:00:21;;;;;;;125.82;59.70;;;;;;;-1.51;50.83;99978.34;10331535;28;20410;-60
2022/03/19 19:05:20;;;;;;;;;;;;;;;-1.58;50.97;99983.69;10331599;28;20076;-60
2022/03/19 19:10:19;;;;;;;104.47;51.57;;;;;;;-1.70;51.88;99979.38;10330925;28;19959;-60
2022/03/19 19:15:19;;;;;;;80.70;44.85;;;;;;;-2.02;52.40;99952.91;10330994;28;20514;-59
2022/03/19 19:20:18;;;;;;;77.22;44.38;;;;;;;-2.22;52.33;99925.78;10330694;28;20451;-59
2022/03/19 19:25:17;;;;;;;64.25;37.65;;;;;;;-2.01;52.93;100001.34;10330496;28;20064;-60
2022/03/19 19:30:16;;;;;;;203.25;92.18;;;;;;;-2.12;53.44;99997.91;10329329;28;20076;-59
2022/03/19 19:35:15;;;;;;;109.43;58.30;;;;;;;-2.31;55.40;100007.28;10330211;28;20029;-59
2022/03/19 19:40:14;;;;;;;148.18;75.20;;;;;;;-2.30;55.39;100006.50;10329627;28;20037;-59
2022/03/19 19:45:15;;;;;;;96.88;52.40;;;;;;;-2.38;55.42;100013.50;10329558;28;20053;-59
2022/03/19 19:50:16;;;;;;;255.35;119.97;;;;;;;-2.40;55.49;100014.13;10329995;28;20069;-59
2022/03/19 19:55:15;;;;;;;226.75;108.68;;;;;;;-2.66;55.77;99989.88;10335802;28;20084;-59
2022/03/19 20:00:20;;;;;;;112.68;59.38;;;;;;;-2.54;56.58;100026.53;10337840;28;20508;-59
2022/03/19 20:05:19;;;;;;;165.80;82.13;;;;;;;-2.58;57.39;100026.13;10337359;28;20068;-59
2022/03/19 20:10:19;;;;;;;199.20;91.78;;;;;;;-2.63;57.65;100037.53;10334449;28;20036;-59
2022/03/19 20:15:22;;;;;;;107.60;56.58;;;;;;;-2.73;57.50;100034.19;10338009;28;20495;-59
2022/03/19 20:20:22;;;;;;;78.70;43.75;;;;;;;-2.75;57.80;100052.59;10336447;28;20060;-59
2022/03/19 20:25:22;;;;;;;138.63;70.03;;;;;;;-3.24;58.32;99977.16;10337066;28;20064;-59
2022/03/19 20:30:23;;;;;;;73.75;44.05;;;;;;;-2.88;57.92;100052.28;10337111;28;20063;-60
2022/03/19 20:35:24;;;;;;;97.22;50.30;;;;;;;-2.94;58.20;100038.28;10336458;28;20103;-59
2022/03/19 20:40:27;;;;;;;70.63;38.67;;;;;;;-2.99;58.65;100033.53;10333101;28;20079;-59
2022/03/19 20:45:30;;;;;;;65.40;38.08;;;;;;;-3.01;58.66;100040.13;10335590;28;20545;-59
2022/03/19 20:50:29;;;;;;;50.55;28.20;;;;;;;-3.07;59.27;100045.53;10333249;28;20057;-59
2022/03/19 20:55:28;;;;;;;45.40;25.02;;;;;;;-3.16;59.01;100039.66;10332283;28;20061;-59
2022/03/19 21:00:31;;;;;;;37.97;22.23;;;;;;;-3.22;59.62;100049.28;10334024;28;20061;-60
2022/03/19 21:05:31;;;;;;;46.33;26.02;;;;;;;-3.23;59.45;100043.28;10332313;28;20061;-60
2022/03/19 21:10:30;;;;;;;52.45;29.58;;;;;;;-3.26;60.05;100037.94;10329701;28;20056;-60
2022/03/19 21:15:31;;;;;;;59.25;34.33;;;;;;;-3.30;60.28;100034.97;10333568;28;20080;-60
2022/03/19 21:20:37;;;;;;;42.53;25.55;;;;;;;-3.44;60.72;100027.00;10332156;28;20554;-60
2022/03/19 21:25:36;;;;;;;53.63;29.70;;;;;;;-3.45;60.71;100035.38;10333252;28;20060;-60
2022/03/19 21:30:35;;;;;;;43.65;22.50;;;;;;;-3.93;60.85;99950.63;10332761;28;20057;-60
2022/03/19 21:35:34;;;;;;;55.22;25.05;;;;;;;-3.72;61.21;99993.16;10331995;28;20091;-60
2022/03/19 21:40:53;;;;;;;44.53;22.52;;;;;;;-3.52;61.36;100034.69;10331835;28;20084;-60
2022/03/19 21:46:01;;;;;;;42.38;23.38;;;;;;;-4.07;60.81;99949.38;10293750;28;1116581;-60
2022/03/19 21:51:00;;;;;;;37.47;21.90;;;;;;;-3.61;60.80;100037.28;10333858;28;20478;-60
2022/03/19 21:55:59;;;;;;;41.45;23.77;;;;;;;-3.62;61.12;100035.50;10333874;28;20439;-60
2022/03/19 22:00:59;;;;;;;39.35;22.10;;;;;;;-3.66;61.22;100036.84;10333944;28;20483;-60
2022/03/19 22:05:58;;;;;;;50.53;28.30;;;;;;;-3.93;61.95;100006.41;10333486;28;20072;-60
2022/03/19 22:10:57;;;;;;;50.58;27.90;;;;;;;-3.73;62.01;100041.25;10332790;28;20487;-60
2022/03/19 22:15:56;;;;;;;40.63;23.08;;;;;;;-3.97;62.17;100003.63;10358620;28;20029;-60
2022/03/19 22:20:59;;;;;;;40.78;23.90;;;;;;;-3.83;62.64;100042.03;10373615;28;20048;-60
2022/03/19 22:25:59;;;;;;;46.55;27.90;;;;;;;-3.83;62.50;100048.00;10373816;28;20072;-60
2022/03/19 22:30:59;;;;;;;153.50;64.28;;;;;;;-3.92;62.64;100039.53;10373537;28;20056;-60
2022/03/19 22:35:58;;;;;;;107.82;48.42;;;;;;;-3.97;62.23;100040.78;10372796;28;20081;-60
2022/03/19 22:40:57;;;;;;;83.57;37.95;;;;;;;-4.14;62.52;100015.47;10373109;28;20033;-60
2022/03/19 22:45:56;;;;;;;73.15;34.95;;;;;;;-4.06;62.64;100033.19;10366754;28;20049;-60
2022/03/19 22:50:55;;;;;;;60.85;36.67;;;;;;;-4.11;62.70;100042.03;10373083;28;20037;-60
2022/03/19 22:55:54;;;;;;;79.25;41.05;;;;;;;-4.25;64.52;100030.59;10372512;28;20021;-60
2022/03/19 23:00:55;;;;;;;82.72;49.55;;;;;;;-4.35;64.11;100027.91;10371979;28;20060;-60
2022/03/19 23:05:54;;;;;;;60.95;36.22;;;;;;;-4.44;63.56;100029.63;10370601;28;20122;-60